createdAt,value
2023-03-19T00:00:41.309Z,181.74
2023-03-19T00:01:31.388Z,177.49
2023-03-19T00:02:21.684Z,182.76
2023-03-19T00:03:11.791Z,177.02
2023-03-19T00:04:01.803Z,178.70
2023-03-19T00:04:51.833Z,178.93
2023-03-19T00:05:41.861Z,181.92
2023-03-19T00:06:31.938Z,178.15
2023-03-19T00:07:21.976Z,178.71
2023-03-19T00:08:12.014Z,178.63
2023-03-19T00:09:02.134Z,173.66
2023-03-19T00:09:52.145Z,177.56
2023-03-19T00:10:42.172Z,177.96
2023-03-19T00:11:32.257Z,178.80
2023-03-19T00:12:22.287Z,180.18
2023-03-19T00:13:12.411Z,178.93
2023-03-19T00:14:02.470Z,179.29
2023-03-19T00:14:52.485Z,182.79
2023-03-19T00:15:42.522Z,179.05
2023-03-19T00:16:32.620Z,179.54
2023-03-19T00:17:22.624Z,175.91
2023-03-19T00:18:12.937Z,184.63
2023-03-19T00:19:02.996Z,177.81
2023-03-19T00:19:53.066Z,176.17
2023-03-19T00:20:43.132Z,177.62
2023-03-19T00:21:33.204Z,177.91
2023-03-19T00:22:23.268Z,177.04
2023-03-19T00:23:13.339Z,175.36
2023-03-19T00:24:03.424Z,176.00
2023-03-19T00:24:53.455Z,178.18
2023-03-19T00:25:43.611Z,179.75
2023-03-19T00:26:33.696Z,177.73
2023-03-19T00:27:23.721Z,172.33
2023-03-19T00:28:14.057Z,177.78
2023-03-19T00:29:04.141Z,177.25
2023-03-19T00:29:54.209Z,175.17
2023-03-19T00:30:44.358Z,183.41
2023-03-19T00:31:34.281Z,177.52
2023-03-19T00:32:24.309Z,179.66
2023-03-19T00:33:14.397Z,180.73
2023-03-19T00:34:04.411Z,180.91
2023-03-19T00:34:54.575Z,176.75
2023-03-19T00:35:44.678Z,179.30
2023-03-19T00:36:34.715Z,178.70
2023-03-19T00:37:25.014Z,175.39
2023-03-19T00:38:15.046Z,172.56
2023-03-19T00:39:05.115Z,176.03
2023-03-19T00:39:55.126Z,173.23
2023-03-19T00:40:45.151Z,176.54
2023-03-19T00:41:35.240Z,174.35
2023-03-19T00:42:25.266Z,175.98
2023-03-19T00:43:15.343Z,173.20
2023-03-19T00:44:05.392Z,178.60
2023-03-19T00:44:55.446Z,177.86
2023-03-19T00:45:45.525Z,179.15
2023-03-19T00:46:35.545Z,178.93
2023-03-19T00:47:25.582Z,174.69
2023-03-19T00:48:15.659Z,174.82
2023-03-19T00:49:05.705Z,177.75
2023-03-19T00:49:55.816Z,174.00
2023-03-19T00:50:45.800Z,181.31
2023-03-19T00:51:35.872Z,175.72
2023-03-19T00:52:25.942Z,172.71
2023-03-19T00:53:16.229Z,176.74
2023-03-19T00:54:06.290Z,179.17
2023-03-19T00:54:56.343Z,172.31
2023-03-19T00:55:46.398Z,177.02
2023-03-19T00:56:36.412Z,176.61
2023-03-19T00:57:26.479Z,176.20
2023-03-19T00:58:16.522Z,177.64
2023-03-19T00:59:06.580Z,171.61
2023-03-19T00:59:56.657Z,173.53
2023-03-19T01:00:46.704Z,170.33
2023-03-19T01:01:36.897Z,173.08
2023-03-19T01:02:27.070Z,173.72
2023-03-19T01:03:17.099Z,170.60
2023-03-19T01:04:07.214Z,174.55
2023-03-19T01:04:57.459Z,172.85
2023-03-19T01:05:47.541Z,173.72
2023-03-19T01:06:37.582Z,167.88
2023-03-19T01:07:27.608Z,172.24
2023-03-19T01:08:17.675Z,166.22
2023-03-19T01:09:07.704Z,171.14
2023-03-19T01:09:57.757Z,172.87
2023-03-19T01:10:47.809Z,174.16
2023-03-19T01:11:37.840Z,172.51
2023-03-19T01:12:27.900Z,171.75
2023-03-19T01:13:17.977Z,169.42
2023-03-19T01:14:08.262Z,168.34
2023-03-19T01:14:58.346Z,168.28
2023-03-19T01:15:48.388Z,165.02
2023-03-19T01:16:38.431Z,166.73
2023-03-19T01:17:28.513Z,168.67
2023-03-19T01:18:18.557Z,168.68
2023-03-19T01:19:08.625Z,168.66
2023-03-19T01:19:58.698Z,165.84
2023-03-19T01:20:48.760Z,168.90
2023-03-19T01:21:38.787Z,171.04
2023-03-19T01:22:28.852Z,166.94
2023-03-19T01:23:19.106Z,168.28
2023-03-19T01:24:09.129Z,165.23
2023-03-19T01:24:59.201Z,158.87
2023-03-19T01:25:49.564Z,169.13
2023-03-19T01:26:39.584Z,169.20
2023-03-19T01:27:29.606Z,173.37
2023-03-19T01:28:19.688Z,175.20
2023-03-19T01:29:09.712Z,169.71
2023-03-19T01:29:59.758Z,166.40
2023-03-19T01:30:49.885Z,167.73
2023-03-19T01:31:39.858Z,164.45
2023-03-19T01:32:30.017Z,165.01
2023-03-19T01:33:20.006Z,159.05
2023-03-19T01:34:10.001Z,160.80
2023-03-19T01:35:00.112Z,165.62
2023-03-19T01:35:50.186Z,163.63
2023-03-19T01:36:40.220Z,162.36
2023-03-19T01:37:30.250Z,163.00
2023-03-19T01:38:20.311Z,163.29
2023-03-19T01:39:10.370Z,161.63
2023-03-19T01:40:00.441Z,164.49
2023-03-19T01:40:50.533Z,164.41
2023-03-19T01:41:40.565Z,167.52
2023-03-19T01:42:30.596Z,164.12
2023-03-19T01:43:21.407Z,166.32
2023-03-19T01:44:10.914Z,161.49
2023-03-19T01:45:00.993Z,163.11
2023-03-19T01:45:51.574Z,163.20
2023-03-19T01:46:41.453Z,164.66
2023-03-19T01:47:31.447Z,165.83
2023-03-19T01:48:21.516Z,163.48
2023-03-19T01:49:11.558Z,165.76
2023-03-19T01:50:01.627Z,159.35
2023-03-19T01:50:51.678Z,162.20
2023-03-19T01:51:41.781Z,158.78
2023-03-19T01:52:31.789Z,155.68
2023-03-19T01:53:21.841Z,159.41
2023-03-19T01:54:11.884Z,157.77
2023-03-19T01:55:02.149Z,160.07
2023-03-19T01:55:52.193Z,159.97
2023-03-19T01:56:42.225Z,163.07
2023-03-19T01:57:32.303Z,161.40
2023-03-19T01:58:24.923Z,166.91
2023-03-19T01:59:12.426Z,162.22
2023-03-19T02:00:02.497Z,161.10
2023-03-19T02:00:52.549Z,163.00
2023-03-19T02:01:42.727Z,164.92
2023-03-19T02:02:32.880Z,157.45
2023-03-19T02:03:22.945Z,158.75
2023-03-19T02:04:13.573Z,159.50
2023-03-19T02:05:03.328Z,157.58
2023-03-19T02:05:53.383Z,155.10
2023-03-19T02:06:43.411Z,154.41
2023-03-19T02:07:33.734Z,154.98
2023-03-19T02:08:23.822Z,154.76
2023-03-19T02:09:13.849Z,156.36
2023-03-19T02:10:04.189Z,158.29
2023-03-19T02:10:54.227Z,156.81
2023-03-19T02:11:44.262Z,155.51
2023-03-19T02:12:34.334Z,153.67
2023-03-19T02:13:25.070Z,155.04
2023-03-19T02:14:14.492Z,157.57
2023-03-19T02:15:04.541Z,156.35
2023-03-19T02:15:54.654Z,156.88
2023-03-19T02:16:44.647Z,156.42
2023-03-19T02:17:34.709Z,156.68
2023-03-19T02:18:24.787Z,161.19
2023-03-19T02:19:15.024Z,158.19
2023-03-19T02:20:05.121Z,152.61
2023-03-19T02:20:55.140Z,157.19
2023-03-19T02:21:45.171Z,155.72
2023-03-19T02:22:35.190Z,154.08
2023-03-19T02:23:25.268Z,154.58
2023-03-19T02:24:15.328Z,150.51
2023-03-19T02:25:05.407Z,152.00
2023-03-19T02:25:55.493Z,150.90
2023-03-19T02:26:45.515Z,150.14
2023-03-19T02:27:35.581Z,153.93
2023-03-19T02:28:25.868Z,151.32
2023-03-19T02:29:15.935Z,150.98
2023-03-19T02:30:05.981Z,150.67
2023-03-19T02:30:56.200Z,148.57
2023-03-19T02:31:46.227Z,149.66
2023-03-19T02:32:36.170Z,149.40
2023-03-19T02:33:26.210Z,152.44
2023-03-19T02:34:16.293Z,153.29
2023-03-19T02:35:06.473Z,150.56
2023-03-19T02:35:56.706Z,151.40
2023-03-19T02:36:46.543Z,153.73
2023-03-19T02:37:36.604Z,156.89
2023-03-19T02:38:26.677Z,158.00
2023-03-19T02:39:16.744Z,162.88
2023-03-19T02:40:06.821Z,157.84
2023-03-19T02:40:56.937Z,157.11
2023-03-19T02:41:46.985Z,156.72
2023-03-19T02:42:37.039Z,156.31
2023-03-19T02:43:27.101Z,156.76
2023-03-19T02:44:17.256Z,161.09
2023-03-19T02:45:07.360Z,158.29
2023-03-19T02:45:57.415Z,154.77
2023-03-19T02:46:47.824Z,155.67
2023-03-19T02:47:37.768Z,153.29
2023-03-19T02:48:27.848Z,153.32
2023-03-19T02:49:18.130Z,155.48
2023-03-19T02:50:08.205Z,158.83
2023-03-19T02:50:58.296Z,160.48
2023-03-19T02:51:48.342Z,162.46
2023-03-19T02:52:38.388Z,161.06
2023-03-19T02:53:28.474Z,159.06
2023-03-19T02:54:18.504Z,161.90
2023-03-19T02:55:08.569Z,156.91
2023-03-19T02:55:58.616Z,159.40
2023-03-19T02:56:48.668Z,161.36
2023-03-19T02:57:38.680Z,159.86
2023-03-19T02:58:28.970Z,160.40
2023-03-19T02:59:19.040Z,158.20
2023-03-19T03:00:09.128Z,161.22
2023-03-19T03:00:59.457Z,161.03
2023-03-19T03:01:49.464Z,156.19
2023-03-19T03:02:39.488Z,157.34
2023-03-19T03:03:29.520Z,158.98
2023-03-19T03:04:19.606Z,157.79
2023-03-19T03:05:09.663Z,157.99
2023-03-19T03:05:59.746Z,153.32
2023-03-19T03:06:49.797Z,156.41
2023-03-19T03:07:39.861Z,155.96
2023-03-19T03:08:29.870Z,153.73
2023-03-19T03:09:19.935Z,148.52
2023-03-19T03:10:10.241Z,154.53
2023-03-19T03:11:00.265Z,151.77
2023-03-19T03:11:50.302Z,151.94
2023-03-19T03:12:40.383Z,156.71
2023-03-19T03:13:30.413Z,155.34
2023-03-19T03:14:20.472Z,155.04
2023-03-19T03:15:10.550Z,152.82
2023-03-19T03:16:00.703Z,151.94
2023-03-19T03:16:50.664Z,152.54
2023-03-19T03:17:40.742Z,154.11
2023-03-19T03:18:30.809Z,149.93
2023-03-19T03:19:21.107Z,149.10
2023-03-19T03:20:11.166Z,148.38
2023-03-19T03:21:01.264Z,147.27
2023-03-19T03:21:51.553Z,145.77
2023-03-19T03:22:41.618Z,146.30
2023-03-19T03:23:31.716Z,151.05
2023-03-19T03:24:21.997Z,152.70
2023-03-19T03:25:12.059Z,150.75
2023-03-19T03:26:02.148Z,150.15
2023-03-19T03:26:52.428Z,146.89
2023-03-19T03:27:42.504Z,148.98
2023-03-19T03:28:32.568Z,149.48
2023-03-19T03:29:22.850Z,145.72
2023-03-19T03:30:12.914Z,145.23
2023-03-19T03:31:03.009Z,147.87
2023-03-19T03:31:53.043Z,147.95
2023-03-19T03:32:43.168Z,147.55
2023-03-19T03:33:33.137Z,144.48
2023-03-19T03:34:23.166Z,143.33
2023-03-19T03:35:13.245Z,143.47
2023-03-19T03:36:03.336Z,145.13
2023-03-19T03:36:53.369Z,143.24
2023-03-19T03:37:43.435Z,141.15
2023-03-19T03:38:33.702Z,143.77
2023-03-19T03:39:23.737Z,144.54
2023-03-19T03:40:13.812Z,142.18
2023-03-19T03:41:04.117Z,142.51
2023-03-19T03:41:54.152Z,138.31
2023-03-19T03:42:44.191Z,143.03
2023-03-19T03:43:34.213Z,145.05
2023-03-19T03:44:24.285Z,138.49
2023-03-19T03:45:14.373Z,140.35
2023-03-19T03:46:04.497Z,141.04
2023-03-19T03:46:54.504Z,143.21
2023-03-19T03:47:44.577Z,139.29
2023-03-19T03:48:34.644Z,138.35
2023-03-19T03:49:24.675Z,141.13
2023-03-19T03:50:14.862Z,139.52
2023-03-19T03:51:04.889Z,140.69
2023-03-19T03:51:54.920Z,139.12
2023-03-19T03:52:44.998Z,140.53
2023-03-19T03:53:35.025Z,143.27
2023-03-19T03:54:25.112Z,137.56
2023-03-19T03:55:15.162Z,138.90
2023-03-19T03:56:05.230Z,140.30
2023-03-19T03:56:55.271Z,132.21
2023-03-19T03:57:45.311Z,141.41
2023-03-19T03:58:35.346Z,138.52
2023-03-19T03:59:25.638Z,135.46
2023-03-19T04:00:15.729Z,139.20
2023-03-19T04:01:05.782Z,137.13
2023-03-19T04:01:56.179Z,138.86
2023-03-19T04:02:46.175Z,136.72
2023-03-19T04:03:36.220Z,136.25
2023-03-19T04:04:26.273Z,136.63
2023-03-19T04:05:16.358Z,138.75
2023-03-19T04:06:06.368Z,139.75
2023-03-19T04:06:56.445Z,139.27
2023-03-19T04:07:46.489Z,135.75
2023-03-19T04:08:36.518Z,140.01
2023-03-19T04:09:26.571Z,137.80
2023-03-19T04:10:16.633Z,136.72
2023-03-19T04:11:06.668Z,137.25
2023-03-19T04:11:56.708Z,135.95
2023-03-19T04:12:46.803Z,139.19
2023-03-19T04:13:36.850Z,138.16
2023-03-19T04:14:26.894Z,140.04
2023-03-19T04:15:16.972Z,140.20
2023-03-19T04:16:06.994Z,136.60
2023-03-19T04:16:57.148Z,130.29
2023-03-19T04:17:47.413Z,136.77
2023-03-19T04:18:37.429Z,134.79
2023-03-19T04:19:27.455Z,135.54
2023-03-19T04:20:17.550Z,133.05
2023-03-19T04:21:07.583Z,136.00
2023-03-19T04:21:57.641Z,135.66
2023-03-19T04:22:47.732Z,133.09
2023-03-19T04:23:37.754Z,133.20
2023-03-19T04:24:27.787Z,133.51
2023-03-19T04:25:17.875Z,131.92
2023-03-19T04:26:08.018Z,129.76
2023-03-19T04:26:58.171Z,133.31
2023-03-19T04:27:48.254Z,132.01
2023-03-19T04:28:38.299Z,131.08
2023-03-19T04:29:28.327Z,130.75
2023-03-19T04:30:18.410Z,133.20
2023-03-19T04:31:08.462Z,129.47
2023-03-19T04:31:58.465Z,133.62
2023-03-19T04:32:48.573Z,134.64
2023-03-19T04:33:38.562Z,130.00
2023-03-19T04:34:28.595Z,131.81
2023-03-19T04:35:18.666Z,135.82
2023-03-19T04:36:08.964Z,133.12
2023-03-19T04:36:59.034Z,130.47
2023-03-19T04:37:49.103Z,129.84
2023-03-19T04:38:39.128Z,126.61
2023-03-19T04:39:29.197Z,130.83
2023-03-19T04:40:19.264Z,131.91
2023-03-19T04:41:09.355Z,133.59
2023-03-19T04:41:59.376Z,128.69
2023-03-19T04:42:49.461Z,129.55
2023-03-19T04:43:39.488Z,128.42
2023-03-19T04:44:29.546Z,131.21
2023-03-19T04:45:19.786Z,135.20
2023-03-19T04:46:09.920Z,131.83
2023-03-19T04:46:59.932Z,127.55
2023-03-19T04:47:50.236Z,128.28
2023-03-19T04:48:40.274Z,131.11
2023-03-19T04:49:30.323Z,125.74
2023-03-19T04:50:20.394Z,130.30
2023-03-19T04:51:10.448Z,129.93
2023-03-19T04:52:00.529Z,125.54
2023-03-19T04:52:50.586Z,127.86
2023-03-19T04:53:40.608Z,130.28
2023-03-19T04:54:30.668Z,123.54
2023-03-19T04:55:20.741Z,128.17
2023-03-19T04:56:10.768Z,124.70
2023-03-19T04:57:01.087Z,126.49
2023-03-19T04:57:51.100Z,127.87
2023-03-19T04:58:41.144Z,127.97
2023-03-19T04:59:31.172Z,129.86
2023-03-19T05:00:21.214Z,127.10
2023-03-19T05:01:11.255Z,130.53
2023-03-19T05:02:01.308Z,129.21
2023-03-19T05:02:51.410Z,131.02
2023-03-19T05:03:41.493Z,127.88
2023-03-19T05:04:31.491Z,128.97
2023-03-19T05:05:21.544Z,128.96
2023-03-19T05:06:11.868Z,125.25
2023-03-19T05:07:01.940Z,121.73
2023-03-19T05:07:52.032Z,125.15
2023-03-19T05:08:42.071Z,125.71
2023-03-19T05:09:32.098Z,126.68
2023-03-19T05:10:22.186Z,127.53
2023-03-19T05:11:12.214Z,126.75
2023-03-19T05:12:02.304Z,125.71
2023-03-19T05:12:52.354Z,124.95
2023-03-19T05:13:42.371Z,120.71
2023-03-19T05:14:32.387Z,123.80
2023-03-19T05:15:22.465Z,126.72
2023-03-19T05:16:12.523Z,127.61
2023-03-19T05:17:02.573Z,124.61
2023-03-19T05:17:52.660Z,124.17
2023-03-19T05:18:42.703Z,123.62
2023-03-19T05:19:32.724Z,126.05
2023-03-19T05:20:22.793Z,122.33
2023-03-19T05:21:12.893Z,125.94
2023-03-19T05:22:03.149Z,123.77
2023-03-19T05:22:53.243Z,123.59
2023-03-19T05:23:43.263Z,121.49
2023-03-19T05:24:33.302Z,118.39
2023-03-19T05:25:23.365Z,122.59
2023-03-19T05:26:13.403Z,122.57
2023-03-19T05:27:03.481Z,118.65
2023-03-19T05:27:53.553Z,126.22
2023-03-19T05:28:43.610Z,117.80
2023-03-19T05:29:33.651Z,119.24
2023-03-19T05:30:23.761Z,119.03
2023-03-19T05:31:14.056Z,121.33
2023-03-19T05:32:04.008Z,120.07
2023-03-19T05:32:54.143Z,119.81
2023-03-19T05:33:44.089Z,117.24
2023-03-19T05:34:34.158Z,120.63
2023-03-19T05:35:24.247Z,117.97
2023-03-19T05:36:14.293Z,116.71
2023-03-19T05:37:04.370Z,115.40
2023-03-19T05:37:54.456Z,119.01
2023-03-19T05:38:44.487Z,124.67
2023-03-19T05:39:34.522Z,117.60
2023-03-19T05:40:24.721Z,117.17
2023-03-19T05:41:14.777Z,118.14
2023-03-19T05:42:04.867Z,119.12
2023-03-19T05:42:55.168Z,118.77
2023-03-19T05:43:45.200Z,115.01
2023-03-19T05:44:35.297Z,115.01
2023-03-19T05:45:25.609Z,116.97
2023-03-19T05:46:15.706Z,114.93
2023-03-19T05:47:05.747Z,114.83
2023-03-19T05:47:56.054Z,112.67
2023-03-19T05:48:46.097Z,115.47
2023-03-19T05:49:36.119Z,116.12
2023-03-19T05:50:26.191Z,116.45
2023-03-19T05:51:16.220Z,113.67
2023-03-19T05:52:06.300Z,121.18
2023-03-19T05:52:56.357Z,123.27
2023-03-19T05:53:46.377Z,117.55
2023-03-19T05:54:36.445Z,117.55
2023-03-19T05:55:26.518Z,117.14
2023-03-19T05:56:16.586Z,120.76
2023-03-19T05:57:06.878Z,115.46
2023-03-19T05:57:56.945Z,115.98
2023-03-19T05:58:47.028Z,113.05
2023-03-19T05:59:37.296Z,116.64
2023-03-19T06:00:28.615Z,121.44
2023-03-19T06:01:17.469Z,122.81
2023-03-19T06:02:07.515Z,120.97
2023-03-19T06:02:57.664Z,121.98
2023-03-19T06:03:47.690Z,120.12
2023-03-19T06:04:37.684Z,119.64
2023-03-19T06:05:27.797Z,109.58
2023-03-19T06:06:18.041Z,117.65
2023-03-19T06:07:08.107Z,114.22
2023-03-19T06:07:58.191Z,119.95
2023-03-19T06:08:48.495Z,117.06
2023-03-19T06:09:38.533Z,118.49
2023-03-19T06:10:28.607Z,120.03
2023-03-19T06:11:18.953Z,118.64
2023-03-19T06:12:09.024Z,120.37
2023-03-19T06:12:59.060Z,119.19
2023-03-19T06:13:49.090Z,116.07
2023-03-19T06:14:39.157Z,121.63
2023-03-19T06:15:29.227Z,116.97
2023-03-19T06:16:19.345Z,115.08
2023-03-19T06:17:09.342Z,112.35
2023-03-19T06:17:59.418Z,110.57
2023-03-19T06:18:49.443Z,108.96
2023-03-19T06:19:39.515Z,110.64
2023-03-19T06:20:29.756Z,105.36
2023-03-19T06:21:19.799Z,112.55
2023-03-19T06:22:09.865Z,110.16
2023-03-19T06:22:59.903Z,115.44
2023-03-19T06:23:49.934Z,117.69
2023-03-19T06:24:39.966Z,111.65
2023-03-19T06:25:30.052Z,112.88
2023-03-19T06:26:20.074Z,108.11
2023-03-19T06:27:10.147Z,110.54
2023-03-19T06:28:00.204Z,109.10
2023-03-19T06:28:50.229Z,107.68
2023-03-19T06:29:40.260Z,103.54
2023-03-19T06:30:30.344Z,112.04
2023-03-19T06:31:20.408Z,104.59
2023-03-19T06:32:10.643Z,106.64
2023-03-19T06:33:00.526Z,102.71
2023-03-19T06:33:50.543Z,106.55
2023-03-19T06:34:40.582Z,105.62
2023-03-19T06:35:30.640Z,106.00
2023-03-19T06:36:20.938Z,106.13
2023-03-19T06:37:11.017Z,106.99
2023-03-19T06:38:01.048Z,104.83
2023-03-19T06:38:51.099Z,101.84
2023-03-19T06:39:41.132Z,105.14
2023-03-19T06:40:31.236Z,104.20
2023-03-19T06:41:21.260Z,105.34
2023-03-19T06:42:11.368Z,100.86
2023-03-19T06:43:01.428Z,96.79
2023-03-19T06:43:51.476Z,94.81
2023-03-19T06:44:41.506Z,87.20
2023-03-19T06:45:31.835Z,83.43
2023-03-19T06:46:21.892Z,81.97
2023-03-19T06:47:11.934Z,82.02
2023-03-19T06:48:02.275Z,87.73
2023-03-19T06:48:52.266Z,80.35
2023-03-19T06:49:42.334Z,84.99
2023-03-19T06:50:32.986Z,86.93
2023-03-19T06:51:22.712Z,85.64
2023-03-19T06:52:12.793Z,91.91
2023-03-19T06:53:02.848Z,89.71
2023-03-19T06:53:52.870Z,87.97
2023-03-19T06:54:42.906Z,92.85
2023-03-19T06:55:32.988Z,89.54
2023-03-19T06:56:23.021Z,94.64
2023-03-19T06:57:13.101Z,97.59
2023-03-19T06:58:03.188Z,98.04
2023-03-19T06:58:53.206Z,106.35
2023-03-19T06:59:43.486Z,103.17
2023-03-19T07:00:33.908Z,101.97
2023-03-19T07:01:23.664Z,106.07
2023-03-19T07:02:13.619Z,101.02
2023-03-19T07:03:03.876Z,101.73
2023-03-19T07:03:53.816Z,104.59
2023-03-19T07:04:43.804Z,105.20
2023-03-19T07:05:33.882Z,103.39
2023-03-19T07:06:23.948Z,99.41
2023-03-19T07:07:14.022Z,101.77
2023-03-19T07:08:04.112Z,102.01
2023-03-19T07:08:54.330Z,100.95
2023-03-19T07:09:44.346Z,102.99
2023-03-19T07:10:34.636Z,103.85
2023-03-19T07:11:24.490Z,103.97
2023-03-19T07:12:14.555Z,102.05
2023-03-19T07:13:04.635Z,103.48
2023-03-19T07:13:54.660Z,103.60
2023-03-19T07:14:44.722Z,107.40
2023-03-19T07:15:34.779Z,110.44
2023-03-19T07:16:24.895Z,107.43
2023-03-19T07:17:14.874Z,106.56
2023-03-19T07:18:05.134Z,108.30
2023-03-19T07:18:55.194Z,105.61
2023-03-19T07:19:45.234Z,101.44
2023-03-19T07:20:36.032Z,91.43
2023-03-19T07:21:25.613Z,88.16
2023-03-19T07:22:15.678Z,87.03
2023-03-19T07:23:05.738Z,80.25
2023-03-19T07:23:55.772Z,80.50
2023-03-19T07:24:45.839Z,83.62
2023-03-19T07:25:35.904Z,88.49
2023-03-19T07:26:25.971Z,98.79
2023-03-19T07:27:16.037Z,92.88
2023-03-19T07:28:06.125Z,95.69
2023-03-19T07:28:56.151Z,94.68
2023-03-19T07:29:46.217Z,99.54
2023-03-19T07:30:36.452Z,103.09
2023-03-19T07:31:26.403Z,104.24
2023-03-19T07:32:16.385Z,102.10
2023-03-19T07:33:06.483Z,100.07
2023-03-19T07:33:56.701Z,99.32
2023-03-19T07:34:46.755Z,101.95
2023-03-19T07:35:36.833Z,109.08
2023-03-19T07:36:26.847Z,101.27
2023-03-19T07:37:16.919Z,95.60
2023-03-19T07:38:06.991Z,101.73
2023-03-19T07:38:57.026Z,100.18
2023-03-19T07:39:47.054Z,98.17
2023-03-19T07:40:38.811Z,96.92
2023-03-19T07:41:27.160Z,98.72
2023-03-19T07:42:17.240Z,96.82
2023-03-19T07:43:07.537Z,102.85
2023-03-19T07:43:57.565Z,92.35
2023-03-19T07:44:47.604Z,93.98
2023-03-19T07:45:37.780Z,101.48
2023-03-19T07:46:27.725Z,99.26
2023-03-19T07:47:28.481Z,105.56
2023-03-19T07:48:08.880Z,104.41
2023-03-19T07:48:58.025Z,99.48
2023-03-19T07:49:47.972Z,99.32
2023-03-19T07:50:38.036Z,90.29
2023-03-19T07:51:28.042Z,86.54
2023-03-19T07:52:19.183Z,85.46
2023-03-19T07:53:08.178Z,91.19
2023-03-19T07:53:58.253Z,84.00
2023-03-19T07:54:48.280Z,81.40
2023-03-19T07:55:38.521Z,85.69
2023-03-19T07:56:28.387Z,92.77
2023-03-19T07:57:18.470Z,89.80
2023-03-19T07:58:08.671Z,84.68
2023-03-19T07:58:58.716Z,80.77
2023-03-19T07:59:48.746Z,71.60
2023-03-19T08:00:38.802Z,68.37
2023-03-19T08:01:28.832Z,59.60
2023-03-19T08:02:21.571Z,57.16
2023-03-19T08:03:08.976Z,60.29
2023-03-19T08:03:59.037Z,60.70
2023-03-19T08:04:49.160Z,59.89
2023-03-19T08:05:39.204Z,64.74
2023-03-19T08:06:29.244Z,65.67
2023-03-19T08:07:19.290Z,61.64
2023-03-19T08:08:09.327Z,61.72
2023-03-19T08:08:59.403Z,55.65
2023-03-19T08:09:49.447Z,62.48
2023-03-19T08:10:39.867Z,56.35
2023-03-19T08:11:29.694Z,55.54
2023-03-19T08:12:19.749Z,50.70
2023-03-19T08:13:09.769Z,48.85
2023-03-19T08:13:59.850Z,70.49
2023-03-19T08:14:49.887Z,66.24
2023-03-19T08:15:39.970Z,66.97
2023-03-19T08:16:30.027Z,69.56
2023-03-19T08:17:20.041Z,61.24
2023-03-19T08:18:10.103Z,57.03
2023-03-19T08:19:00.187Z,67.98
2023-03-19T08:19:50.480Z,69.24
2023-03-19T08:20:40.507Z,70.51
2023-03-19T08:21:30.534Z,78.14
2023-03-19T08:22:20.634Z,78.60
2023-03-19T08:23:10.641Z,83.09
2023-03-19T08:24:02.504Z,90.50
2023-03-19T08:24:50.787Z,90.09
2023-03-19T08:25:40.826Z,86.80
2023-03-19T08:26:30.856Z,93.27
2023-03-19T08:27:20.927Z,97.66
2023-03-19T08:28:11.015Z,86.53
2023-03-19T08:29:01.083Z,76.86
2023-03-19T08:29:51.122Z,67.95
2023-03-19T08:30:41.415Z,78.87
2023-03-19T08:31:31.415Z,75.16
2023-03-19T08:32:21.464Z,92.45
2023-03-19T08:33:11.610Z,96.25
2023-03-19T08:34:01.543Z,96.54
2023-03-19T08:34:51.606Z,95.26
2023-03-19T08:35:41.672Z,98.98
2023-03-19T08:36:31.662Z,93.21
2023-03-19T08:37:21.863Z,88.05
2023-03-19T08:38:11.951Z,84.23
2023-03-19T08:39:02.003Z,82.64
2023-03-19T08:39:52.338Z,80.15
2023-03-19T08:40:42.369Z,89.77
2023-03-19T08:41:32.434Z,93.51
2023-03-19T08:42:22.722Z,99.74
2023-03-19T08:43:12.752Z,95.66
2023-03-19T08:44:02.829Z,107.49
2023-03-19T08:44:52.874Z,108.57
2023-03-19T08:45:42.924Z,119.84
2023-03-19T08:46:33.010Z,121.98
2023-03-19T08:47:22.998Z,113.67
2023-03-19T08:48:13.029Z,116.44
2023-03-19T08:49:03.113Z,117.07
2023-03-19T08:49:53.146Z,120.43
2023-03-19T08:50:43.180Z,116.24
2023-03-19T08:51:33.223Z,107.10
2023-03-19T08:52:23.264Z,110.15
2023-03-19T08:53:13.294Z,115.52
2023-03-19T08:54:03.367Z,115.52
2023-03-19T08:54:53.425Z,112.68
2023-03-19T08:55:43.501Z,104.21
2023-03-19T08:56:33.568Z,103.73
2023-03-19T08:57:23.628Z,102.69
2023-03-19T08:58:13.680Z,95.49
2023-03-19T08:59:03.754Z,96.85
2023-03-19T08:59:53.805Z,106.79
2023-03-19T09:00:44.048Z,112.70
2023-03-19T09:01:34.106Z,122.56
2023-03-19T09:02:24.120Z,117.47
2023-03-19T09:03:14.149Z,113.21
2023-03-19T09:04:04.234Z,115.72
2023-03-19T09:04:54.358Z,127.04
2023-03-19T09:05:44.317Z,121.11
2023-03-19T09:06:34.345Z,109.73
2023-03-19T09:07:24.424Z,101.92
2023-03-19T09:08:14.493Z,102.40
2023-03-19T09:09:04.578Z,100.45
2023-03-19T09:09:54.862Z,108.38
2023-03-19T09:10:44.869Z,105.67
2023-03-19T09:11:35.109Z,106.36
2023-03-19T09:12:24.999Z,111.22
2023-03-19T09:13:15.074Z,116.88
2023-03-19T09:14:05.146Z,119.03
2023-03-19T09:14:55.189Z,126.10
2023-03-19T09:15:45.289Z,131.01
2023-03-19T09:16:35.276Z,132.19
2023-03-19T09:17:25.381Z,128.06
2023-03-19T09:18:15.387Z,129.70
2023-03-19T09:19:05.694Z,130.63
2023-03-19T09:19:55.725Z,128.66
2023-03-19T09:20:45.768Z,126.66
2023-03-19T09:21:35.793Z,123.59
2023-03-19T09:22:25.883Z,119.77
2023-03-19T09:23:15.902Z,118.87
2023-03-19T09:24:05.976Z,115.37
2023-03-19T09:24:56.061Z,103.96
2023-03-19T09:25:46.127Z,96.02
2023-03-19T09:26:36.138Z,98.10
2023-03-19T09:27:26.205Z,105.54
2023-03-19T09:28:16.463Z,104.31
2023-03-19T09:29:06.520Z,112.72
2023-03-19T09:29:56.573Z,119.43
2023-03-19T09:30:46.605Z,120.32
2023-03-19T09:31:36.727Z,115.29
2023-03-19T09:32:26.689Z,117.71
2023-03-19T09:33:16.832Z,118.46
2023-03-19T09:34:06.802Z,111.15
2023-03-19T09:34:56.876Z,103.26
2023-03-19T09:35:46.943Z,108.88
2023-03-19T09:36:36.945Z,113.48
2023-03-19T09:37:27.034Z,105.99
2023-03-19T09:38:17.063Z,109.87
2023-03-19T09:39:07.105Z,116.25
2023-03-19T09:39:57.149Z,120.34
2023-03-19T09:40:47.182Z,113.79
2023-03-19T09:41:37.341Z,112.75
2023-03-19T09:42:27.322Z,112.63
2023-03-19T09:43:17.352Z,110.48
2023-03-19T09:44:07.434Z,113.45
2023-03-19T09:44:57.497Z,108.54
2023-03-19T09:45:47.543Z,110.72
2023-03-19T09:46:37.629Z,119.78
2023-03-19T09:47:27.655Z,116.44
2023-03-19T09:48:17.712Z,106.78
2023-03-19T09:49:07.795Z,106.76
2023-03-19T09:49:57.862Z,111.47
2023-03-19T09:50:47.882Z,123.05
2023-03-19T09:51:37.925Z,126.58
2023-03-19T09:52:27.965Z,128.70
2023-03-19T09:53:17.997Z,131.65
2023-03-19T09:54:08.036Z,129.26
2023-03-19T09:54:58.141Z,130.33
2023-03-19T09:55:48.156Z,128.31
2023-03-19T09:56:38.193Z,125.26
2023-03-19T09:57:28.317Z,131.19
2023-03-19T09:58:18.312Z,134.03
2023-03-19T09:59:08.426Z,138.35
2023-03-19T09:59:58.496Z,138.15
2023-03-19T10:00:48.539Z,137.65
2023-03-19T10:01:38.655Z,126.77
2023-03-19T10:02:28.641Z,116.85
2023-03-19T10:03:18.664Z,113.32
2023-03-19T10:04:09.053Z,118.22
2023-03-19T10:04:59.099Z,118.06
2023-03-19T10:05:49.214Z,122.18
2023-03-19T10:06:39.173Z,123.48
2023-03-19T10:07:29.268Z,116.13
2023-03-19T10:08:19.287Z,116.29
2023-03-19T10:09:09.371Z,113.63
2023-03-19T10:09:59.433Z,118.68
2023-03-19T10:10:49.461Z,117.42
2023-03-19T10:11:39.486Z,117.95
2023-03-19T10:12:29.528Z,123.00
2023-03-19T10:13:19.579Z,116.55
2023-03-19T10:14:09.629Z,112.96
2023-03-19T10:14:59.689Z,118.43
2023-03-19T10:15:49.768Z,123.20
2023-03-19T10:16:40.002Z,129.15
2023-03-19T10:17:29.878Z,128.48
2023-03-19T10:18:19.918Z,130.50
2023-03-19T10:19:09.945Z,127.15
2023-03-19T10:20:00.259Z,129.28
2023-03-19T10:20:50.309Z,127.29
2023-03-19T10:21:40.354Z,122.59
2023-03-19T10:22:30.390Z,120.67
2023-03-19T10:23:20.419Z,113.36
2023-03-19T10:24:10.498Z,118.56
2023-03-19T10:25:00.554Z,118.67
2023-03-19T10:25:50.611Z,120.69
2023-03-19T10:26:40.649Z,117.64
2023-03-19T10:27:30.723Z,116.88